sensor_id;sensor_type;location;lat;lon;timestamp;temperature;humidity
774;DHT22;370;48.810;9.150;2023-05-29T00:01:28;13.00;6.40
774;DHT22;370;48.810;9.150;2023-05-29T00:03:57;12.90;6.50
774;DHT22;370;48.810;9.150;2023-05-29T00:06:24;12.90;6.10
774;DHT22;370;48.810;9.150;2023-05-29T00:08:50;12.90;5.90
774;DHT22;370;48.810;9.150;2023-05-29T00:11:19;12.90;6.50
774;DHT22;370;48.810;9.150;2023-05-29T00:13:45;13.00;7.10
774;DHT22;370;48.810;9.150;2023-05-29T00:16:12;12.90;7.00
774;DHT22;370;48.810;9.150;2023-05-29T00:18:39;12.90;7.00
774;DHT22;370;48.810;9.150;2023-05-29T00:21:10;12.90;7.00
774;DHT22;370;48.810;9.150;2023-05-29T00:23:37;12.80;6.90
774;DHT22;370;48.810;9.150;2023-05-29T00:26:04;12.80;6.90
774;DHT22;370;48.810;9.150;2023-05-29T00:28:32;12.90;7.00
774;DHT22;370;48.810;9.150;2023-05-29T00:30:59;12.70;6.90
774;DHT22;370;48.810;9.150;2023-05-29T00:33:26;12.70;6.90
774;DHT22;370;48.810;9.150;2023-05-29T00:35:53;12.70;6.90
774;DHT22;370;48.810;9.150;2023-05-29T00:38:19;12.70;6.90
774;DHT22;370;48.810;9.150;2023-05-29T00:40:46;12.70;8.40
774;DHT22;370;48.810;9.150;2023-05-29T00:43:13;12.60;9.00
774;DHT22;370;48.810;9.150;2023-05-29T00:49:04;12.50;9.50
774;DHT22;370;48.810;9.150;2023-05-29T00:51:31;12.50;8.90
774;DHT22;370;48.810;9.150;2023-05-29T00:53:59;12.50;8.90
774;DHT22;370;48.810;9.150;2023-05-29T00:56:26;12.50;8.50
774;DHT22;370;48.810;9.150;2023-05-29T00:58:52;12.50;8.20
774;DHT22;370;48.810;9.150;2023-05-29T01:01:19;12.40;9.20
774;DHT22;370;48.810;9.150;2023-05-29T01:03:48;12.40;9.90
774;DHT22;370;48.810;9.150;2023-05-29T01:06:16;12.40;10.10
774;DHT22;370;48.810;9.150;2023-05-29T01:08:45;12.30;10.60
774;DHT22;370;48.810;9.150;2023-05-29T01:11:18;12.30;11.50
774;DHT22;370;48.810;9.150;2023-05-29T01:13:48;12.20;12.00
774;DHT22;370;48.810;9.150;2023-05-29T01:16:21;12.30;11.00
774;DHT22;370;48.810;9.150;2023-05-29T01:18:57;12.20;11.40
774;DHT22;370;48.810;9.150;2023-05-29T01:21:42;12.20;11.90
774;DHT22;370;48.810;9.150;2023-05-29T01:24:14;12.20;11.80
774;DHT22;370;48.810;9.150;2023-05-29T01:26:48;12.20;11.80
774;DHT22;370;48.810;9.150;2023-05-29T01:29:18;12.20;11.90
774;DHT22;370;48.810;9.150;2023-05-29T01:31:46;12.10;12.60
774;DHT22;370;48.810;9.150;2023-05-29T01:34:14;12.00;12.90
774;DHT22;370;48.810;9.150;2023-05-29T01:36:41;12.10;12.80
774;DHT22;370;48.810;9.150;2023-05-29T01:39:08;12.20;12.30
774;DHT22;370;48.810;9.150;2023-05-29T01:41:36;12.20;12.30
774;DHT22;370;48.810;9.150;2023-05-29T01:44:05;12.10;12.70
774;DHT22;370;48.810;9.150;2023-05-29T01:46:34;12.10;12.60
774;DHT22;370;48.810;9.150;2023-05-29T01:49:02;12.00;13.00
774;DHT22;370;48.810;9.150;2023-05-29T01:51:29;12.00;13.40
774;DHT22;370;48.810;9.150;2023-05-29T01:53:57;11.90;13.20
774;DHT22;370;48.810;9.150;2023-05-29T01:56:26;11.90;13.00
774;DHT22;370;48.810;9.150;2023-05-29T01:58:54;11.90;12.80
774;DHT22;370;48.810;9.150;2023-05-29T02:01:23;11.90;13.80
774;DHT22;370;48.810;9.150;2023-05-29T02:03:50;11.90;13.60
774;DHT22;370;48.810;9.150;2023-05-29T02:06:17;11.90;13.80
774;DHT22;370;48.810;9.150;2023-05-29T02:08:44;11.90;13.90
774;DHT22;370;48.810;9.150;2023-05-29T02:11:11;11.90;14.00
774;DHT22;370;48.810;9.150;2023-05-29T02:13:38;11.80;14.40
774;DHT22;370;48.810;9.150;2023-05-29T02:16:05;11.80;15.00
774;DHT22;370;48.810;9.150;2023-05-29T02:18:33;11.70;14.90
774;DHT22;370;48.810;9.150;2023-05-29T02:21:00;11.70;15.60
774;DHT22;370;48.810;9.150;2023-05-29T02:23:27;11.60;16.10
774;DHT22;370;48.810;9.150;2023-05-29T02:25:54;11.60;16.10
774;DHT22;370;48.810;9.150;2023-05-29T02:28:21;11.60;16.00
774;DHT22;370;48.810;9.150;2023-05-29T02:30:47;11.60;16.00
774;DHT22;370;48.810;9.150;2023-05-29T02:33:14;11.50;16.70
774;DHT22;370;48.810;9.150;2023-05-29T02:35:42;11.60;16.50
774;DHT22;370;48.810;9.150;2023-05-29T02:38:09;11.50;16.60
774;DHT22;370;48.810;9.150;2023-05-29T02:40:35;11.50;16.40
774;DHT22;370;48.810;9.150;2023-05-29T02:43:02;11.50;16.90
774;DHT22;370;48.810;9.150;2023-05-29T02:45:29;11.40;17.60
774;DHT22;370;48.810;9.150;2023-05-29T02:47:56;11.40;17.90
774;DHT22;370;48.810;9.150;2023-05-29T02:50:22;11.40;18.00
774;DHT22;370;48.810;9.150;2023-05-29T02:52:50;11.30;18.60
774;DHT22;370;48.810;9.150;2023-05-29T02:55:17;11.30;19.00
774;DHT22;370;48.810;9.150;2023-05-29T02:57:44;11.30;19.40
774;DHT22;370;48.810;9.150;2023-05-29T03:00:11;11.30;19.60
774;DHT22;370;48.810;9.150;2023-05-29T03:02:38;11.20;20.50
774;DHT22;370;48.810;9.150;2023-05-29T03:05:05;11.20;20.00
774;DHT22;370;48.810;9.150;2023-05-29T03:07:33;11.10;21.80
774;DHT22;370;48.810;9.150;2023-05-29T03:10:01;11.10;21.60
774;DHT22;370;48.810;9.150;2023-05-29T03:12:29;11.00;22.20
774;DHT22;370;48.810;9.150;2023-05-29T03:14:56;11.10;22.40
774;DHT22;370;48.810;9.150;2023-05-29T03:17:23;11.00;22.10
774;DHT22;370;48.810;9.150;2023-05-29T03:19:49;11.00;22.10
774;DHT22;370;48.810;9.150;2023-05-29T03:22:17;11.00;22.90
774;DHT22;370;48.810;9.150;2023-05-29T03:24:43;10.90;22.90
774;DHT22;370;48.810;9.150;2023-05-29T03:27:12;10.90;22.80
774;DHT22;370;48.810;9.150;2023-05-29T03:29:38;10.90;22.70
774;DHT22;370;48.810;9.150;2023-05-29T03:32:05;10.90;22.90
774;DHT22;370;48.810;9.150;2023-05-29T03:34:32;10.80;22.80
774;DHT22;370;48.810;9.150;2023-05-29T03:36:59;10.80;22.80
774;DHT22;370;48.810;9.150;2023-05-29T03:39:27;10.80;22.80
774;DHT22;370;48.810;9.150;2023-05-29T03:41:54;10.80;22.80
774;DHT22;370;48.810;9.150;2023-05-29T03:44:22;10.80;22.80
774;DHT22;370;48.810;9.150;2023-05-29T03:46:49;10.80;23.60
774;DHT22;370;48.810;9.150;2023-05-29T03:49:16;10.80;23.50
774;DHT22;370;48.810;9.150;2023-05-29T03:51:43;10.80;23.80
774;DHT22;370;48.810;9.150;2023-05-29T03:54:09;10.80;24.70
774;DHT22;370;48.810;9.150;2023-05-29T03:56:36;10.80;23.90
774;DHT22;370;48.810;9.150;2023-05-29T03:59:03;10.90;24.10
774;DHT22;370;48.810;9.150;2023-05-29T04:01:31;10.90;23.80
774;DHT22;370;48.810;9.150;2023-05-29T04:03:58;11.00;22.90
774;DHT22;370;48.810;9.150;2023-05-29T04:06:25;11.00;22.90
774;DHT22;370;48.810;9.150;2023-05-29T04:08:52;11.10;23.00
774;DHT22;370;48.810;9.150;2023-05-29T04:11:19;11.10;23.00
774;DHT22;370;48.810;9.150;2023-05-29T04:13:47;11.20;23.00
774;DHT22;370;48.810;9.150;2023-05-29T04:16:14;11.30;22.20
774;DHT22;370;48.810;9.150;2023-05-29T04:18:42;11.30;21.80
774;DHT22;370;48.810;9.150;2023-05-29T04:21:09;11.40;21.70
774;DHT22;370;48.810;9.150;2023-05-29T04:23:36;11.50;21.60
774;DHT22;370;48.810;9.150;2023-05-29T04:26:03;11.50;21.50
774;DHT22;370;48.810;9.150;2023-05-29T04:28:31;11.50;21.70
774;DHT22;370;48.810;9.150;2023-05-29T04:30:57;11.60;20.40
774;DHT22;370;48.810;9.150;2023-05-29T04:33:24;11.70;18.40
774;DHT22;370;48.810;9.150;2023-05-29T04:35:53;11.80;17.10
774;DHT22;370;48.810;9.150;2023-05-29T04:38:20;12.00;16.40
774;DHT22;370;48.810;9.150;2023-05-29T04:40:50;12.10;15.30
774;DHT22;370;48.810;9.150;2023-05-29T04:43:17;12.20;15.50
774;DHT22;370;48.810;9.150;2023-05-29T04:45:44;12.30;14.30
774;DHT22;370;48.810;9.150;2023-05-29T04:48:10;12.50;13.60
774;DHT22;370;48.810;9.150;2023-05-29T04:50:37;12.60;12.80
774;DHT22;370;48.810;9.150;2023-05-29T04:53:05;12.80;12.00
774;DHT22;370;48.810;9.150;2023-05-29T04:55:32;12.90;11.20
774;DHT22;370;48.810;9.150;2023-05-29T04:57:59;13.00;10.00
774;DHT22;370;48.810;9.150;2023-05-29T05:00:26;13.20;9.80
774;DHT22;370;48.810;9.150;2023-05-29T05:02:53;13.30;9.00
774;DHT22;370;48.810;9.150;2023-05-29T05:05:20;13.50;8.20
774;DHT22;370;48.810;9.150;2023-05-29T05:07:46;13.60;7.70
774;DHT22;370;48.810;9.150;2023-05-29T05:10:14;13.70;7.50
774;DHT22;370;48.810;9.150;2023-05-29T05:12:41;13.90;7.70
774;DHT22;370;48.810;9.150;2023-05-29T05:15:09;14.10;6.50
774;DHT22;370;48.810;9.150;2023-05-29T05:17:36;14.20;6.20
774;DHT22;370;48.810;9.150;2023-05-29T05:20:03;14.40;4.50
774;DHT22;370;48.810;9.150;2023-05-29T05:22:31;14.60;3.30
774;DHT22;370;48.810;9.150;2023-05-29T05:24:58;14.70;2.70
774;DHT22;370;48.810;9.150;2023-05-29T05:27:27;14.90;1.20
774;DHT22;370;48.810;9.150;2023-05-29T05:29:53;15.10;1.00
774;DHT22;370;48.810;9.150;2023-05-29T05:32:20;15.30;1.00
774;DHT22;370;48.810;9.150;2023-05-29T05:34:47;15.50;1.00
774;DHT22;370;48.810;9.150;2023-05-29T05:37:14;15.70;1.00
774;DHT22;370;48.810;9.150;2023-05-29T05:39:40;15.80;1.00
774;DHT22;370;48.810;9.150;2023-05-29T05:42:07;16.00;1.00
774;DHT22;370;48.810;9.150;2023-05-29T05:44:35;16.20;1.00
774;DHT22;370;48.810;9.150;2023-05-29T05:47:02;16.30;1.00
774;DHT22;370;48.810;9.150;2023-05-29T05:49:29;16.40;1.00
774;DHT22;370;48.810;9.150;2023-05-29T05:51:56;16.70;1.00
774;DHT22;370;48.810;9.150;2023-05-29T05:54:22;16.90;1.00
774;DHT22;370;48.810;9.150;2023-05-29T05:56:49;17.10;1.00
774;DHT22;370;48.810;9.150;2023-05-29T05:59:16;17.30;1.00
774;DHT22;370;48.810;9.150;2023-05-29T06:01:44;17.50;1.00
774;DHT22;370;48.810;9.150;2023-05-29T06:04:10;17.70;1.00
774;DHT22;370;48.810;9.150;2023-05-29T06:06:37;17.90;1.00
774;DHT22;370;48.810;9.150;2023-05-29T06:09:04;17.90;1.00
774;DHT22;370;48.810;9.150;2023-05-29T06:11:30;18.10;1.00
774;DHT22;370;48.810;9.150;2023-05-29T06:13:58;18.30;1.00
774;DHT22;370;48.810;9.150;2023-05-29T06:16:25;18.40;1.00
774;DHT22;370;48.810;9.150;2023-05-29T06:18:53;18.60;1.00
774;DHT22;370;48.810;9.150;2023-05-29T06:21:20;18.60;1.00
774;DHT22;370;48.810;9.150;2023-05-29T06:23:47;18.70;1.00
774;DHT22;370;48.810;9.150;2023-05-29T06:26:13;18.90;1.00
774;DHT22;370;48.810;9.150;2023-05-29T06:28:41;19.00;1.00
774;DHT22;370;48.810;9.150;2023-05-29T06:31:08;19.10;1.00
774;DHT22;370;48.810;9.150;2023-05-29T06:33:35;19.30;1.00
774;DHT22;370;48.810;9.150;2023-05-29T06:36:04;19.40;1.00
774;DHT22;370;48.810;9.150;2023-05-29T06:38:31;19.60;1.00
774;DHT22;370;48.810;9.150;2023-05-29T06:40:57;19.80;1.00
774;DHT22;370;48.810;9.150;2023-05-29T06:43:25;19.90;1.00
774;DHT22;370;48.810;9.150;2023-05-29T06:45:52;20.10;1.00
774;DHT22;370;48.810;9.150;2023-05-29T06:48:18;20.20;1.00
774;DHT22;370;48.810;9.150;2023-05-29T06:50:46;20.40;1.00
774;DHT22;370;48.810;9.150;2023-05-29T06:53:14;20.40;1.00
774;DHT22;370;48.810;9.150;2023-05-29T06:55:41;20.50;1.00
774;DHT22;370;48.810;9.150;2023-05-29T06:58:08;20.60;1.00
774;DHT22;370;48.810;9.150;2023-05-29T07:00:35;20.80;1.00
774;DHT22;370;48.810;9.150;2023-05-29T07:03:02;21.10;1.00
774;DHT22;370;48.810;9.150;2023-05-29T07:05:28;21.60;1.00
774;DHT22;370;48.810;9.150;2023-05-29T07:07:55;22.10;1.00
774;DHT22;370;48.810;9.150;2023-05-29T07:10:23;22.40;1.00
774;DHT22;370;48.810;9.150;2023-05-29T07:12:50;23.10;1.00
774;DHT22;370;48.810;9.150;2023-05-29T07:15:17;23.70;1.00
774;DHT22;370;48.810;9.150;2023-05-29T07:17:44;24.00;1.00
774;DHT22;370;48.810;9.150;2023-05-29T07:20:11;24.60;1.00
774;DHT22;370;48.810;9.150;2023-05-29T07:22:38;25.10;1.00
774;DHT22;370;48.810;9.150;2023-05-29T07:25:06;25.60;1.00
774;DHT22;370;48.810;9.150;2023-05-29T07:27:34;26.30;1.00
774;DHT22;370;48.810;9.150;2023-05-29T07:30:01;26.80;1.00
774;DHT22;370;48.810;9.150;2023-05-29T07:32:28;27.60;1.00
774;DHT22;370;48.810;9.150;2023-05-29T07:34:56;28.10;1.00
774;DHT22;370;48.810;9.150;2023-05-29T07:37:22;28.80;1.00
774;DHT22;370;48.810;9.150;2023-05-29T07:39:49;29.20;1.00
774;DHT22;370;48.810;9.150;2023-05-29T07:42:16;29.30;1.00
774;DHT22;370;48.810;9.150;2023-05-29T07:44:44;30.00;1.00
774;DHT22;370;48.810;9.150;2023-05-29T07:47:13;30.60;1.00
774;DHT22;370;48.810;9.150;2023-05-29T07:49:40;31.00;1.00
774;DHT22;370;48.810;9.150;2023-05-29T07:52:09;31.50;1.00
774;DHT22;370;48.810;9.150;2023-05-29T07:54:35;32.00;1.00
774;DHT22;370;48.810;9.150;2023-05-29T07:57:02;32.80;1.00
774;DHT22;370;48.810;9.150;2023-05-29T07:59:34;33.90;1.00
774;DHT22;370;48.810;9.150;2023-05-29T08:02:03;34.60;1.00
774;DHT22;370;48.810;9.150;2023-05-29T08:04:30;35.00;1.00
774;DHT22;370;48.810;9.150;2023-05-29T08:06:58;35.20;1.00
774;DHT22;370;48.810;9.150;2023-05-29T08:09:25;35.80;1.00
774;DHT22;370;48.810;9.150;2023-05-29T08:11:52;35.40;1.00
774;DHT22;370;48.810;9.150;2023-05-29T08:14:21;36.10;1.00
774;DHT22;370;48.810;9.150;2023-05-29T08:16:48;36.40;1.00
774;DHT22;370;48.810;9.150;2023-05-29T08:19:16;36.10;1.00
774;DHT22;370;48.810;9.150;2023-05-29T08:21:43;37.00;1.00
774;DHT22;370;48.810;9.150;2023-05-29T08:24:10;37.80;1.00
774;DHT22;370;48.810;9.150;2023-05-29T08:26:37;38.70;1.00
774;DHT22;370;48.810;9.150;2023-05-29T08:29:04;39.10;1.00
774;DHT22;370;48.810;9.150;2023-05-29T08:31:31;39.60;1.00
774;DHT22;370;48.810;9.150;2023-05-29T08:33:58;39.70;1.00
774;DHT22;370;48.810;9.150;2023-05-29T08:36:26;39.40;1.00
774;DHT22;370;48.810;9.150;2023-05-29T08:38:53;38.80;1.00
774;DHT22;370;48.810;9.150;2023-05-29T08:41:23;39.00;1.00
774;DHT22;370;48.810;9.150;2023-05-29T08:43:52;39.30;1.00
774;DHT22;370;48.810;9.150;2023-05-29T08:46:19;37.70;1.00
774;DHT22;370;48.810;9.150;2023-05-29T08:48:48;38.40;1.00
774;DHT22;370;48.810;9.150;2023-05-29T08:51:17;39.60;1.00
774;DHT22;370;48.810;9.150;2023-05-29T08:53:48;40.30;1.00
774;DHT22;370;48.810;9.150;2023-05-29T08:56:15;40.30;1.00
774;DHT22;370;48.810;9.150;2023-05-29T08:58:44;40.80;1.00
774;DHT22;370;48.810;9.150;2023-05-29T09:01:11;41.30;1.00
774;DHT22;370;48.810;9.150;2023-05-29T09:03:38;42.00;1.00
774;DHT22;370;48.810;9.150;2023-05-29T09:06:07;42.00;1.00
774;DHT22;370;48.810;9.150;2023-05-29T09:08:34;42.30;1.00
774;DHT22;370;48.810;9.150;2023-05-29T09:11:04;43.00;1.00
774;DHT22;370;48.810;9.150;2023-05-29T09:13:31;43.20;1.00
774;DHT22;370;48.810;9.150;2023-05-29T09:15:59;43.10;1.00
774;DHT22;370;48.810;9.150;2023-05-29T09:18:29;42.50;1.00
774;DHT22;370;48.810;9.150;2023-05-29T09:21:06;42.40;1.00
774;DHT22;370;48.810;9.150;2023-05-29T09:23:34;42.80;1.00
774;DHT22;370;48.810;9.150;2023-05-29T09:26:04;43.10;1.00
774;DHT22;370;48.810;9.150;2023-05-29T09:28:31;43.80;1.00
774;DHT22;370;48.810;9.150;2023-05-29T09:30:58;44.10;1.00
774;DHT22;370;48.810;9.150;2023-05-29T09:33:25;43.50;1.00
774;DHT22;370;48.810;9.150;2023-05-29T09:35:52;43.60;1.00
774;DHT22;370;48.810;9.150;2023-05-29T09:38:19;43.70;1.00
774;DHT22;370;48.810;9.150;2023-05-29T09:40:46;43.90;1.00
774;DHT22;370;48.810;9.150;2023-05-29T09:43:15;43.90;1.00
774;DHT22;370;48.810;9.150;2023-05-29T09:45:44;44.60;1.00
774;DHT22;370;48.810;9.150;2023-05-29T09:48:13;45.30;1.00
774;DHT22;370;48.810;9.150;2023-05-29T09:50:41;44.90;1.00
774;DHT22;370;48.810;9.150;2023-05-29T09:53:20;44.50;1.00
774;DHT22;370;48.810;9.150;2023-05-29T09:55:50;46.10;1.00
774;DHT22;370;48.810;9.150;2023-05-29T09:58:18;46.50;1.00
774;DHT22;370;48.810;9.150;2023-05-29T10:00:46;47.00;1.00
774;DHT22;370;48.810;9.150;2023-05-29T10:03:14;47.80;1.00
774;DHT22;370;48.810;9.150;2023-05-29T10:05:42;46.50;1.00
774;DHT22;370;48.810;9.150;2023-05-29T10:08:12;47.10;1.00
774;DHT22;370;48.810;9.150;2023-05-29T10:10:43;47.50;1.00
774;DHT22;370;48.810;9.150;2023-05-29T10:13:11;46.80;1.00
774;DHT22;370;48.810;9.150;2023-05-29T10:15:43;47.40;1.00
774;DHT22;370;48.810;9.150;2023-05-29T10:18:16;47.90;1.00
774;DHT22;370;48.810;9.150;2023-05-29T10:20:47;48.10;1.00
774;DHT22;370;48.810;9.150;2023-05-29T10:23:15;46.90;1.00
774;DHT22;370;48.810;9.150;2023-05-29T10:25:44;46.80;1.00
774;DHT22;370;48.810;9.150;2023-05-29T10:28:13;47.20;1.00
774;DHT22;370;48.810;9.150;2023-05-29T10:30:47;46.40;1.00
774;DHT22;370;48.810;9.150;2023-05-29T10:33:30;47.00;1.00
774;DHT22;370;48.810;9.150;2023-05-29T10:36:05;47.90;1.00
774;DHT22;370;48.810;9.150;2023-05-29T10:38:34;47.70;1.00
774;DHT22;370;48.810;9.150;2023-05-29T10:41:28;47.60;1.00
774;DHT22;370;48.810;9.150;2023-05-29T10:43:55;48.00;1.00
774;DHT22;370;48.810;9.150;2023-05-29T10:47:03;48.00;1.00
774;DHT22;370;48.810;9.150;2023-05-29T10:49:30;47.60;1.00
774;DHT22;370;48.810;9.150;2023-05-29T10:51:58;47.60;1.00
774;DHT22;370;48.810;9.150;2023-05-29T10:54:26;48.10;1.00
774;DHT22;370;48.810;9.150;2023-05-29T10:56:56;48.80;1.00
774;DHT22;370;48.810;9.150;2023-05-29T10:59:23;48.60;1.00
774;DHT22;370;48.810;9.150;2023-05-29T11:01:54;48.90;1.00
774;DHT22;370;48.810;9.150;2023-05-29T11:04:26;49.60;1.00
774;DHT22;370;48.810;9.150;2023-05-29T11:06:53;49.40;1.00
774;DHT22;370;48.810;9.150;2023-05-29T11:09:28;50.10;1.00
774;DHT22;370;48.810;9.150;2023-05-29T11:12:21;50.10;1.00
774;DHT22;370;48.810;9.150;2023-05-29T11:15:02;50.60;1.00
774;DHT22;370;48.810;9.150;2023-05-29T11:17:32;50.70;1.00
774;DHT22;370;48.810;9.150;2023-05-29T11:20:02;50.60;1.00
774;DHT22;370;48.810;9.150;2023-05-29T11:22:45;49.20;1.00
774;DHT22;370;48.810;9.150;2023-05-29T11:25:16;48.30;1.00
774;DHT22;370;48.810;9.150;2023-05-29T11:27:44;47.60;1.00
774;DHT22;370;48.810;9.150;2023-05-29T11:30:12;47.50;1.00
774;DHT22;370;48.810;9.150;2023-05-29T11:32:40;47.40;1.00
774;DHT22;370;48.810;9.150;2023-05-29T11:35:09;48.50;1.00
774;DHT22;370;48.810;9.150;2023-05-29T11:37:38;49.10;1.00
774;DHT22;370;48.810;9.150;2023-05-29T11:40:06;49.20;1.00
774;DHT22;370;48.810;9.150;2023-05-29T11:42:34;49.10;1.00
774;DHT22;370;48.810;9.150;2023-05-29T11:45:14;49.10;1.00
774;DHT22;370;48.810;9.150;2023-05-29T11:47:56;49.00;1.00
774;DHT22;370;48.810;9.150;2023-05-29T11:50:24;49.40;1.00
774;DHT22;370;48.810;9.150;2023-05-29T11:52:52;49.90;1.00
774;DHT22;370;48.810;9.150;2023-05-29T11:55:19;49.10;1.00
774;DHT22;370;48.810;9.150;2023-05-29T11:57:46;47.80;1.00
774;DHT22;370;48.810;9.150;2023-05-29T12:00:15;46.90;1.00
774;DHT22;370;48.810;9.150;2023-05-29T12:02:43;47.70;1.00
774;DHT22;370;48.810;9.150;2023-05-29T12:05:14;47.70;1.00
774;DHT22;370;48.810;9.150;2023-05-29T12:07:47;48.00;1.00
774;DHT22;370;48.810;9.150;2023-05-29T12:10:16;48.70;1.00
774;DHT22;370;48.810;9.150;2023-05-29T12:12:47;47.70;1.00
774;DHT22;370;48.810;9.150;2023-05-29T12:15:14;48.20;1.00
774;DHT22;370;48.810;9.150;2023-05-29T12:17:43;48.60;1.00
774;DHT22;370;48.810;9.150;2023-05-29T12:20:12;48.50;1.00
774;DHT22;370;48.810;9.150;2023-05-29T12:22:40;48.70;1.00
774;DHT22;370;48.810;9.150;2023-05-29T12:25:09;47.80;1.00
774;DHT22;370;48.810;9.150;2023-05-29T12:27:38;48.00;1.00
774;DHT22;370;48.810;9.150;2023-05-29T12:30:09;47.90;1.00
774;DHT22;370;48.810;9.150;2023-05-29T12:32:37;47.50;1.00
774;DHT22;370;48.810;9.150;2023-05-29T12:35:15;48.30;1.00
774;DHT22;370;48.810;9.150;2023-05-29T12:37:46;49.40;1.00
774;DHT22;370;48.810;9.150;2023-05-29T12:40:18;49.50;1.00
774;DHT22;370;48.810;9.150;2023-05-29T12:42:46;49.20;1.00
774;DHT22;370;48.810;9.150;2023-05-29T12:45:12;49.80;1.00
774;DHT22;370;48.810;9.150;2023-05-29T12:47:45;48.40;1.00
774;DHT22;370;48.810;9.150;2023-05-29T12:50:33;48.50;1.00
774;DHT22;370;48.810;9.150;2023-05-29T12:53:01;49.00;1.00
774;DHT22;370;48.810;9.150;2023-05-29T12:55:29;49.20;1.00
774;DHT22;370;48.810;9.150;2023-05-29T12:57:59;49.00;1.00
774;DHT22;370;48.810;9.150;2023-05-29T13:00:25;48.20;1.00
774;DHT22;370;48.810;9.150;2023-05-29T13:02:52;47.80;1.00
774;DHT22;370;48.810;9.150;2023-05-29T13:05:19;46.40;1.00
774;DHT22;370;48.810;9.150;2023-05-29T13:07:50;47.00;1.00
774;DHT22;370;48.810;9.150;2023-05-29T13:10:17;48.10;1.00
774;DHT22;370;48.810;9.150;2023-05-29T13:12:44;48.50;1.00
774;DHT22;370;48.810;9.150;2023-05-29T13:15:12;48.90;1.00
774;DHT22;370;48.810;9.150;2023-05-29T13:17:40;47.60;1.00
774;DHT22;370;48.810;9.150;2023-05-29T13:20:08;47.60;1.00
774;DHT22;370;48.810;9.150;2023-05-29T13:22:36;47.60;1.00
774;DHT22;370;48.810;9.150;2023-05-29T13:25:05;47.00;1.00
774;DHT22;370;48.810;9.150;2023-05-29T13:27:33;45.90;1.00
774;DHT22;370;48.810;9.150;2023-05-29T13:30:03;45.20;1.00
774;DHT22;370;48.810;9.150;2023-05-29T13:32:30;45.80;1.00
774;DHT22;370;48.810;9.150;2023-05-29T13:34:56;45.40;1.00
774;DHT22;370;48.810;9.150;2023-05-29T13:37:23;45.50;1.00
774;DHT22;370;48.810;9.150;2023-05-29T13:39:51;45.20;1.00
774;DHT22;370;48.810;9.150;2023-05-29T13:42:19;45.30;1.00
774;DHT22;370;48.810;9.150;2023-05-29T13:44:47;45.50;1.00
774;DHT22;370;48.810;9.150;2023-05-29T13:47:14;44.60;1.00
774;DHT22;370;48.810;9.150;2023-05-29T13:49:41;44.30;1.00
774;DHT22;370;48.810;9.150;2023-05-29T13:52:08;44.60;1.00
774;DHT22;370;48.810;9.150;2023-05-29T13:54:35;44.80;1.00
774;DHT22;370;48.810;9.150;2023-05-29T13:57:02;45.40;1.00
774;DHT22;370;48.810;9.150;2023-05-29T13:59:30;45.30;1.00
774;DHT22;370;48.810;9.150;2023-05-29T14:01:57;44.30;1.00
774;DHT22;370;48.810;9.150;2023-05-29T14:04:24;43.80;1.00
774;DHT22;370;48.810;9.150;2023-05-29T14:06:51;44.10;1.00
774;DHT22;370;48.810;9.150;2023-05-29T14:09:18;44.40;1.00
774;DHT22;370;48.810;9.150;2023-05-29T14:11:52;44.80;1.00
774;DHT22;370;48.810;9.150;2023-05-29T14:14:19;45.30;1.00
774;DHT22;370;48.810;9.150;2023-05-29T14:16:47;45.10;1.00
774;DHT22;370;48.810;9.150;2023-05-29T14:19:14;44.70;1.00
774;DHT22;370;48.810;9.150;2023-05-29T14:21:41;44.40;1.00
774;DHT22;370;48.810;9.150;2023-05-29T14:24:08;43.20;1.00
774;DHT22;370;48.810;9.150;2023-05-29T14:26:34;43.90;1.00
774;DHT22;370;48.810;9.150;2023-05-29T14:29:02;43.50;1.00
774;DHT22;370;48.810;9.150;2023-05-29T14:31:28;43.60;1.00
774;DHT22;370;48.810;9.150;2023-05-29T14:33:56;44.20;1.00
774;DHT22;370;48.810;9.150;2023-05-29T14:36:23;44.20;1.00
774;DHT22;370;48.810;9.150;2023-05-29T14:38:50;44.50;1.00
774;DHT22;370;48.810;9.150;2023-05-29T14:41:17;44.00;1.00
774;DHT22;370;48.810;9.150;2023-05-29T14:43:44;43.40;1.00
774;DHT22;370;48.810;9.150;2023-05-29T14:46:10;42.60;1.00
774;DHT22;370;48.810;9.150;2023-05-29T14:48:38;42.10;1.00
774;DHT22;370;48.810;9.150;2023-05-29T14:51:06;42.00;1.00
774;DHT22;370;48.810;9.150;2023-05-29T14:53:36;41.70;1.00
774;DHT22;370;48.810;9.150;2023-05-29T14:56:04;41.10;1.00
774;DHT22;370;48.810;9.150;2023-05-29T14:58:31;40.40;1.00
774;DHT22;370;48.810;9.150;2023-05-29T15:00:58;40.10;1.00
774;DHT22;370;48.810;9.150;2023-05-29T15:03:25;39.80;1.00
774;DHT22;370;48.810;9.150;2023-05-29T15:05:52;39.80;1.00
774;DHT22;370;48.810;9.150;2023-05-29T15:08:20;40.20;1.00
774;DHT22;370;48.810;9.150;2023-05-29T15:10:47;39.80;1.00
774;DHT22;370;48.810;9.150;2023-05-29T15:13:14;39.70;1.00
774;DHT22;370;48.810;9.150;2023-05-29T15:15:41;39.20;1.00
774;DHT22;370;48.810;9.150;2023-05-29T15:18:08;39.50;1.00
774;DHT22;370;48.810;9.150;2023-05-29T15:20:34;39.50;1.00
774;DHT22;370;48.810;9.150;2023-05-29T15:23:01;39.70;1.00
774;DHT22;370;48.810;9.150;2023-05-29T15:25:29;39.80;1.00
774;DHT22;370;48.810;9.150;2023-05-29T15:27:56;39.10;1.00
774;DHT22;370;48.810;9.150;2023-05-29T15:30:24;38.80;1.00
774;DHT22;370;48.810;9.150;2023-05-29T15:32:51;38.30;1.00
774;DHT22;370;48.810;9.150;2023-05-29T15:35:18;37.60;1.00
774;DHT22;370;48.810;9.150;2023-05-29T15:37:45;37.30;1.00
774;DHT22;370;48.810;9.150;2023-05-29T15:40:11;37.00;1.00
774;DHT22;370;48.810;9.150;2023-05-29T15:42:40;36.40;1.00
774;DHT22;370;48.810;9.150;2023-05-29T15:45:07;35.20;1.00
774;DHT22;370;48.810;9.150;2023-05-29T15:47:33;34.40;1.00
774;DHT22;370;48.810;9.150;2023-05-29T15:50:00;33.50;1.00
774;DHT22;370;48.810;9.150;2023-05-29T15:52:27;32.80;1.00
774;DHT22;370;48.810;9.150;2023-05-29T15:54:54;31.90;1.00
774;DHT22;370;48.810;9.150;2023-05-29T15:57:21;31.10;1.00
774;DHT22;370;48.810;9.150;2023-05-29T15:59:49;30.40;1.00
774;DHT22;370;48.810;9.150;2023-05-29T16:02:16;29.90;1.00
774;DHT22;370;48.810;9.150;2023-05-29T16:04:42;29.60;1.00
774;DHT22;370;48.810;9.150;2023-05-29T16:07:09;29.30;1.00
774;DHT22;370;48.810;9.150;2023-05-29T16:09:36;29.00;1.00
774;DHT22;370;48.810;9.150;2023-05-29T16:12:04;28.80;1.00
774;DHT22;370;48.810;9.150;2023-05-29T16:14:35;28.70;1.00
774;DHT22;370;48.810;9.150;2023-05-29T16:17:04;28.60;1.00
774;DHT22;370;48.810;9.150;2023-05-29T16:19:31;28.40;1.00
774;DHT22;370;48.810;9.150;2023-05-29T16:21:58;28.20;1.00
774;DHT22;370;48.810;9.150;2023-05-29T16:24:25;28.10;1.00
774;DHT22;370;48.810;9.150;2023-05-29T16:26:52;28.00;1.00
774;DHT22;370;48.810;9.150;2023-05-29T16:29:19;27.90;1.00
774;DHT22;370;48.810;9.150;2023-05-29T16:31:46;27.90;1.00
774;DHT22;370;48.810;9.150;2023-05-29T16:34:16;27.70;1.00
774;DHT22;370;48.810;9.150;2023-05-29T16:36:43;27.60;1.00
774;DHT22;370;48.810;9.150;2023-05-29T16:39:10;27.50;1.00
774;DHT22;370;48.810;9.150;2023-05-29T16:41:37;27.50;1.00
774;DHT22;370;48.810;9.150;2023-05-29T16:44:04;27.50;1.00
774;DHT22;370;48.810;9.150;2023-05-29T16:46:31;27.40;1.00
774;DHT22;370;48.810;9.150;2023-05-29T16:48:58;27.20;1.00
774;DHT22;370;48.810;9.150;2023-05-29T16:51:26;27.20;1.00
774;DHT22;370;48.810;9.150;2023-05-29T16:53:52;27.10;1.00
774;DHT22;370;48.810;9.150;2023-05-29T16:56:19;26.90;1.00